Aérodrome :
LOGIN :

S'inscrire | Disclaimer

   EN    FR    IT 

 










Légende :    VFR   VFR Marginal   IFR   IFR Intensif   IFR Très Intensif
Visi : 
Plafond : 
>= 8 km
>= 3000ft
5 à 8 km
1000 à 3000 ft
1500m à 5 km
500 à 1000 ft
800 à 1500m
200 à 500 ft
< 800m
< 200 ft
Symboles :   Orages  Brouillard  Fortes neiges  Fortes précipitations  Vent > 20 kt
SIGMETs :   Divers  Orages  Givrage  Turbulence  Onde Orograph.  Cendres Volcan.






- Altitude de l'aérodrome : 978 ft
- Code IATA : LNZ


LOWL - Linz

DERNIER METAR :
  • 161120Z AUTO 27011KT 250V310 9999 FEW034 27/17 Q1016 NOSIG

METARs EXPIRÉS :
  • 161050Z AUTO 29012KT 260V320 9999 FEW036 BKN038 27/18 Q1016 NOSIG
  • 161020Z AUTO 28012KT 9999 SCT036 27/18 Q1016 NOSIG
  • 160950Z AUTO 29013KT 9999 FEW036 BKN042 26/17 Q1016 NOSIG
  • 160920Z AUTO 29007KT 240V340 9999 FEW030 BKN038 26/17 Q1016 NOSIG
  • 160850Z AUTO 30004KT 250V350 9999 FEW024 SCT032 25/18 Q1016 NOSIG
  • 160820Z AUTO 28005KT 220V320 9999 FEW024 SCT030 24/18 Q1016 NOSIG
  • 160750Z AUTO 28006KT 210V320 9999 FEW020 SCT026 23/18 Q1016 NOSIG
  • 160720Z AUTO 24004KT 170V320 9999 FEW018 BKN022 23/18 Q1016 NOSIG
  • 160650Z AUTO 26004KT 200V310 9999 FEW016 SCT018 BKN024 22/18 Q1016 NOSIG

TAF TAF LOWL
Valide du 16 à 12h jusqu'au 17 à 12h UTC


161115Z 1612/1712 27005KT 9999 FEW030 BKN050 TX28/1613Z TN18/1705Z
TEMPO 1612/1615 27015KT
TEMPO 1619/1703 SHRA
PROB30
TEMPO 1619/1622 TSRA FEW030CB BKN040
PROB30
TEMPO 1703/1706 -RA BKN014



MET'MAP, la Météo Aéronautique d'un coup d'oeil ! - Copyright ORBIFLY Décembre 2007 - Disclaimer

ORBIFLY MET'MAP TEAM :

Programmation & Développement : Alexandra Zaïnal
Sur une idée originale de : Baudouin d'Aumeries
Soutien technique & logistique : Manuel Goepfert
Assistance : Marc-Olivier Méhu




SOURCES & CREDITS :

   NOAA